Time;durP1;ratioP1;P1;durP2;ratioP2;P2;SDS_P1;SDS_P2;PMS_P1;PMS_P2;Temp;Humidity;BMP_temperature;BMP_pressure;BME280_temperature;BME280_humidity;BME280_pressure;Samples;Min_cycle;Max_cycle;Signal;HPM_P1;HPM_P2
2022/11/04 00:01:23;;;;;;;11.00;6.93;;;12.90;99.90;;;;;;5093744;28;20032;-72
2022/11/04 00:03:49;;;;;;;7.28;6.53;;;12.90;99.90;;;;;;5095026;28;20040;-72
2022/11/04 00:06:14;;;;;;;7.93;6.30;;;12.90;99.90;;;;;;5106003;28;20439;-72
2022/11/04 00:08:40;;;;;;;11.65;6.63;;;12.80;99.90;;;;;;5106594;28;20019;-72
2022/11/04 00:13:50;;;;;;;10.57;7.03;;;12.80;99.90;;;;;;5109708;28;20096;-72
2022/11/04 00:19:01;;;;;;;9.85;6.88;;;12.70;99.90;;;;;;5101998;27;20046;-72
2022/11/04 00:29:47;;;;;;;14.93;9.82;;;12.70;99.90;;;;;;5101437;28;20132;-71
2022/11/04 00:34:57;;;;;;;13.38;9.93;;;12.70;99.90;;;;;;5105039;28;20050;-72
2022/11/04 00:37:23;;;;;;;15.25;10.32;;;12.70;99.90;;;;;;5088044;28;20019;-72
2022/11/04 00:39:49;;;;;;;12.65;9.48;;;12.70;99.90;;;;;;5108047;28;20035;-72
2022/11/04 00:42:14;;;;;;;10.07;7.38;;;12.70;99.90;;;;;;5101322;28;20468;-72
2022/11/04 00:44:40;;;;;;;13.93;7.70;;;12.60;99.90;;;;;;5104395;28;20027;-73
2022/11/04 00:47:06;;;;;;;12.82;7.43;;;12.60;99.90;;;;;;5101669;28;20038;-73
2022/11/04 00:49:31;;;;;;;10.45;6.97;;;12.60;99.90;;;;;;5104119;28;20023;-72
2022/11/04 00:51:57;;;;;;;10.90;6.57;;;12.60;99.90;;;;;;5109000;28;20076;-72
2022/11/04 00:54:22;;;;;;;9.75;5.72;;;12.70;99.90;;;;;;5100065;28;20053;-71
2022/11/04 00:56:48;;;;;;;7.30;5.28;;;12.50;99.90;;;;;;5105162;28;20028;-72
2022/11/04 00:59:14;;;;;;;7.75;5.18;;;12.60;99.90;;;;;;5105907;28;20020;-72
2022/11/04 01:01:40;;;;;;;5.20;4.63;;;12.40;99.90;;;;;;5102796;28;20487;-72
2022/11/04 01:04:06;;;;;;;7.43;4.90;;;12.40;99.90;;;;;;5099618;28;20032;-72
2022/11/04 01:06:32;;;;;;;6.95;4.38;;;12.40;99.90;;;;;;5107685;28;20611;-72
2022/11/04 01:09:01;;;;;;;6.53;4.15;;;12.40;99.90;;;;;;5105636;28;20027;-72
2022/11/04 01:11:28;;;;;;;6.63;3.97;;;12.40;99.90;;;;;;5103832;28;20023;-72
2022/11/04 01:13:54;;;;;;;5.80;3.60;;;12.50;99.90;;;;;;5089110;28;20423;-72
2022/11/04 01:16:20;;;;;;;7.05;4.13;;;12.30;99.90;;;;;;5104415;28;20031;-72
2022/11/04 01:18:46;;;;;;;6.45;4.35;;;12.40;99.90;;;;;;5104403;28;20040;-72
2022/11/04 01:21:14;;;;;;;7.80;4.30;;;12.40;99.90;;;;;;5105106;28;20035;-72
2022/11/04 01:23:41;;;;;;;5.70;3.97;;;12.40;99.90;;;;;;5059553;28;20195;-71
2022/11/04 01:26:18;;;;;;;8.27;3.70;;;12.30;99.90;;;;;;5090874;28;20092;-72
2022/11/04 01:28:44;;;;;;;6.47;4.13;;;12.30;99.90;;;;;;5093707;28;20032;-72
2022/11/04 01:31:21;;;;;;;7.85;3.40;;;12.20;99.90;;;;;;5097220;28;20086;-71
2022/11/04 01:33:49;;;;;;;8.45;3.70;;;12.30;99.90;;;;;;5092706;28;20024;-72
2022/11/04 01:36:14;;;;;;;7.60;3.92;;;12.30;99.90;;;;;;5094734;28;20039;-72
2022/11/04 01:38:40;;;;;;;6.28;3.97;;;12.30;99.90;;;;;;5095775;28;20414;-72
2022/11/04 01:41:06;;;;;;;5.78;3.35;;;12.30;99.90;;;;;;5098295;28;20059;-72
2022/11/04 01:43:52;;;;;;;8.50;3.33;;;12.30;99.90;;;;;;5096736;28;20542;-72
2022/11/04 01:46:52;;;;;;;10.35;3.20;;;12.30;99.90;;;;;;5097493;28;20055;-72
2022/11/04 01:49:34;;;;;;;9.93;2.72;;;12.20;99.90;;;;;;5092430;28;20476;-72
2022/11/04 01:52:12;;;;;;;9.27;2.72;;;12.20;99.90;;;;;;5094391;28;20467;-71
2022/11/04 01:54:40;;;;;;;7.03;3.28;;;12.10;99.90;;;;;;5094585;28;20376;-72
2022/11/04 01:57:10;;;;;;;9.20;3.40;;;12.20;99.90;;;;;;5094113;28;20023;-71
2022/11/04 01:59:39;;;;;;;6.80;3.13;;;12.20;99.90;;;;;;5093606;28;20030;-72
2022/11/04 02:02:04;;;;;;;8.23;3.00;;;12.20;99.90;;;;;;5093938;28;20059;-72
2022/11/04 02:04:30;;;;;;;5.85;2.72;;;12.10;99.90;;;;;;5093704;28;20450;-72
2022/11/04 02:07:05;;;;;;;4.22;2.83;;;12.10;99.90;;;;;;5095717;28;20080;-72
2022/11/04 02:09:33;;;;;;;3.88;2.55;;;12.10;99.90;;;;;;5089995;28;20046;-73
2022/11/04 02:15:01;;;;;;;7.32;2.80;;;12.00;99.90;;;;;;5013363;28;20030;-73
2022/11/04 02:17:42;;;;;;;4.30;2.53;;;12.00;99.90;;;;;;5077166;28;20036;-72
2022/11/04 02:20:16;;;;;;;7.28;2.33;;;12.00;99.90;;;;;;5098008;28;20032;-72
2022/11/04 02:23:18;;;;;;;6.60;2.58;;;11.90;99.90;;;;;;5099861;28;20492;-72
2022/11/04 02:25:44;;;;;;;5.82;2.53;;;12.00;99.90;;;;;;5075891;28;20012;-71
2022/11/04 02:28:12;;;;;;;4.95;2.70;;;11.80;99.90;;;;;;5097457;28;20032;-72
2022/11/04 02:30:50;;;;;;;6.38;2.85;;;11.80;99.90;;;;;;5079557;28;20028;-72
2022/11/04 02:33:24;;;;;;;7.75;2.63;;;11.80;99.90;;;;;;5099461;28;20042;-72
2022/11/04 02:36:02;;;;;;;6.03;2.45;;;11.80;99.90;;;;;;5096246;28;20023;-72
2022/11/04 02:38:37;;;;;;;8.07;3.08;;;11.80;99.90;;;;;;5075820;28;20027;-72
2022/11/04 02:41:48;;;;;;;9.23;3.05;;;11.80;99.90;;;;;;5098476;28;20437;-72
2022/11/04 02:44:14;;;;;;;8.75;2.70;;;11.80;99.90;;;;;;5040157;28;20069;-72
2022/11/04 02:46:51;;;;;;;10.05;2.83;;;11.80;99.90;;;;;;5096027;28;20066;-72
2022/11/04 02:49:25;;;;;;;10.07;2.67;;;11.90;99.90;;;;;;5109486;28;20074;-72
2022/11/04 02:52:11;;;;;;;7.40;2.63;;;11.90;99.90;;;;;;5107494;28;20551;-73
2022/11/04 02:55:12;;;;;;;9.15;2.92;;;11.90;99.90;;;;;;5107007;28;20031;-72
2022/11/04 02:57:40;;;;;;;10.23;2.58;;;11.80;99.90;;;;;;5108083;28;20036;-72
2022/11/04 03:00:09;;;;;;;11.80;4.20;;;11.80;99.90;;;;;;5103996;28;20535;-74
2022/11/04 03:02:44;;;;;;;13.52;2.70;;;11.80;99.90;;;;;;5107378;28;20031;-72
2022/11/04 03:05:15;;;;;;;10.50;2.30;;;11.90;99.90;;;;;;5106381;27;20040;-72
2022/11/04 03:07:45;;;;;;;10.47;2.80;;;11.80;99.90;;;;;;5109222;28;20108;-73
2022/11/04 03:10:32;;;;;;;11.07;2.47;;;11.80;99.90;;;;;;5112621;28;20308;-73
2022/11/04 03:13:08;;;;;;;8.82;3.17;;;11.90;99.90;;;;;;5089093;28;20035;-73
2022/11/04 03:15:36;;;;;;;11.50;3.08;;;11.80;99.90;;;;;;5110305;28;20038;-72
2022/11/04 03:18:04;;;;;;;12.93;2.80;;;11.80;99.90;;;;;;5103018;28;20061;-73
2022/11/04 03:20:31;;;;;;;12.90;2.85;;;11.70;99.90;;;;;;5091833;28;20089;-71
2022/11/04 03:22:58;;;;;;;8.57;2.60;;;11.80;99.90;;;;;;5111509;28;20035;-72
2022/11/04 03:25:30;;;;;;;11.50;2.97;;;11.70;99.90;;;;;;5105754;28;20030;-72
2022/11/04 03:28:26;;;;;;;11.65;2.70;;;11.60;99.90;;;;;;5105247;28;20032;-73
2022/11/04 03:30:55;;;;;;;10.68;3.10;;;11.60;99.90;;;;;;5092622;28;20019;-72
2022/11/04 03:34:00;;;;;;;7.72;2.53;;;11.70;99.90;;;;;;5106634;28;20043;-72
2022/11/04 03:36:28;;;;;;;10.20;3.13;;;11.70;99.90;;;;;;5083203;28;20316;-72
2022/11/04 03:38:54;;;;;;;11.98;2.88;;;11.60;99.90;;;;;;5105992;28;20020;-72
2022/11/04 03:41:39;;;;;;;6.15;2.33;;;11.50;99.90;;;;;;5108895;28;20023;-72
2022/11/04 03:44:05;;;;;;;7.95;2.50;;;11.50;99.90;;;;;;5089546;28;20036;-73
2022/11/04 03:46:31;;;;;;;8.80;2.90;;;11.50;99.90;;;;;;5108398;28;20037;-72
2022/11/04 03:48:59;;;;;;;8.82;2.80;;;11.50;99.90;;;;;;5105820;28;20032;-72
2022/11/04 03:51:25;;;;;;;9.50;3.15;;;11.50;99.90;;;;;;5091594;28;20917;-72
2022/11/04 03:53:51;;;;;;;10.10;2.90;;;11.60;99.90;;;;;;5107992;28;20023;-72
2022/11/04 03:56:27;;;;;;;8.30;2.85;;;11.60;99.90;;;;;;5107370;28;20036;-72
2022/11/04 03:59:17;;;;;;;9.55;2.83;;;11.60;99.90;;;;;;5089160;28;20039;-72
2022/11/04 04:02:02;;;;;;;8.52;2.80;;;11.70;99.90;;;;;;5105037;27;20043;-72
2022/11/04 04:04:39;;;;;;;9.52;2.60;;;11.60;99.90;;;;;;5087860;28;20028;-72
2022/11/04 04:07:34;;;;;;;14.10;3.00;;;11.60;99.90;;;;;;5107458;28;20016;-72
2022/11/04 04:13:42;;;;;;;7.07;2.22;;;11.60;99.90;;;;;;5028153;28;20394;-72
2022/11/04 04:16:44;;;;;;;8.20;2.70;;;11.50;99.90;;;;;;5102957;28;20040;-72
2022/11/04 04:19:20;;;;;;;10.60;2.80;;;11.50;99.90;;;;;;5062958;28;20044;-72
2022/11/04 04:21:57;;;;;;;10.98;2.78;;;11.60;99.90;;;;;;5106419;28;20461;-72
2022/11/04 04:27:30;;;;;;;7.70;2.90;;;11.50;99.90;;;;;;5102522;28;20057;-72
2022/11/04 04:30:15;;;;;;;9.45;3.15;;;11.50;99.90;;;;;;5097672;28;20480;-72
2022/11/04 04:32:44;;;;;;;12.20;2.80;;;11.50;99.90;;;;;;5105843;28;20050;-72
2022/11/04 04:44:58;;;;;;;12.93;3.15;;;11.40;99.90;;;;;;5105467;28;20043;-72
2022/11/04 04:47:21;;;;;;;12.48;3.25;;;11.40;99.90;;;;;;5106996;28;20042;-72
2022/11/04 04:49:55;;;;;;;5.90;2.47;;;11.40;99.90;;;;;;5088172;28;20048;-72
2022/11/04 04:52:22;;;;;;;9.02;2.65;;;11.40;99.90;;;;;;5105557;28;20019;-72
2022/11/04 04:54:47;;;;;;;9.98;2.50;;;11.40;99.90;;;;;;5106361;27;20026;-71
2022/11/04 04:57:13;;;;;;;9.75;2.78;;;11.40;99.90;;;;;;5106880;28;20392;-72
2022/11/04 04:59:39;;;;;;;4.72;2.40;;;11.40;99.90;;;;;;5105100;28;20028;-72
2022/11/04 05:02:04;;;;;;;9.57;3.20;;;11.30;99.90;;;;;;5107796;28;20380;-71
2022/11/04 05:04:30;;;;;;;8.93;2.92;;;11.30;99.90;;;;;;5106328;28;20035;-72
2022/11/04 05:06:55;;;;;;;15.13;3.83;;;11.30;99.90;;;;;;5105825;28;20019;-72
2022/11/04 05:09:21;;;;;;;10.60;3.15;;;11.30;99.90;;;;;;5109841;28;20038;-71
2022/11/04 05:11:47;;;;;;;16.30;3.42;;;11.30;99.90;;;;;;5109263;28;20030;-72
2022/11/04 05:14:13;;;;;;;12.60;4.03;;;11.30;99.90;;;;;;5097245;28;20057;-72
2022/11/04 05:16:38;;;;;;;11.10;3.40;;;11.30;99.90;;;;;;5102827;28;20078;-71
2022/11/04 05:19:04;;;;;;;12.27;3.70;;;11.30;99.90;;;;;;5103212;28;20039;-72
2022/11/04 05:21:29;;;;;;;11.38;3.50;;;11.40;99.90;;;;;;5103871;28;20585;-71
2022/11/04 05:23:55;;;;;;;12.68;3.30;;;11.30;99.90;;;;;;5105606;28;20048;-72
2022/11/04 05:26:21;;;;;;;11.77;3.50;;;11.40;99.90;;;;;;5106265;28;20785;-72
2022/11/04 05:28:46;;;;;;;11.02;3.70;;;11.30;99.90;;;;;;5107440;28;20040;-72
2022/11/04 05:31:12;;;;;;;9.15;3.40;;;11.40;99.90;;;;;;5104828;28;20152;-72
2022/11/04 05:33:38;;;;;;;17.15;3.67;;;11.40;99.90;;;;;;5107249;28;20035;-71
2022/11/04 05:36:12;;;;;;;10.40;4.00;;;11.40;99.90;;;;;;5104647;28;20032;-71
2022/11/04 05:38:39;;;;;;;11.25;3.90;;;11.40;99.90;;;;;;5103170;28;20028;-71
2022/11/04 05:41:06;;;;;;;9.68;3.35;;;11.40;99.90;;;;;;5107194;28;20060;-71
2022/11/04 05:43:32;;;;;;;13.75;3.70;;;11.40;99.90;;;;;;5100752;28;20127;-71
2022/11/04 05:45:58;;;;;;;11.73;3.38;;;11.40;99.90;;;;;;5107457;28;20032;-72
2022/11/04 05:48:24;;;;;;;12.27;3.72;;;11.40;99.90;;;;;;5085226;28;20050;-72
2022/11/04 05:50:50;;;;;;;12.15;3.38;;;11.40;99.90;;;;;;5102182;28;20044;-72
2022/11/04 05:53:16;;;;;;;9.25;3.08;;;11.40;99.90;;;;;;5098583;28;20056;-72
2022/11/04 05:55:42;;;;;;;11.80;3.28;;;11.50;99.90;;;;;;5105366;28;20407;-72
2022/11/04 05:58:07;;;;;;;14.13;3.60;;;11.50;99.90;;;;;;5109075;28;20028;-72
2022/11/04 06:00:33;;;;;;;12.20;3.15;;;11.50;99.90;;;;;;5096303;28;20023;-72
2022/11/04 06:02:58;;;;;;;9.27;3.00;;;11.50;99.90;;;;;;5113366;28;20050;-71
2022/11/04 06:05:25;;;;;;;13.23;3.53;;;11.50;99.90;;;;;;5090515;28;20032;-72
2022/11/04 06:07:51;;;;;;;10.13;3.33;;;11.40;99.90;;;;;;5109623;28;20035;-72
2022/11/04 06:10:17;;;;;;;8.15;3.15;;;11.40;99.90;;;;;;5104666;28;20134;-72
2022/11/04 06:12:42;;;;;;;6.53;2.92;;;11.50;99.90;;;;;;5106247;28;20031;-72
2022/11/04 06:15:09;;;;;;;9.63;2.85;;;11.50;99.90;;;;;;5102260;28;20480;-72
2022/11/04 06:17:34;;;;;;;10.27;3.38;;;11.50;99.90;;;;;;5105924;28;20432;-72
2022/11/04 06:20:00;;;;;;;11.05;3.40;;;11.50;99.90;;;;;;5102383;28;20460;-72
2022/11/04 06:22:26;;;;;;;12.40;3.85;;;11.50;99.90;;;;;;5109458;28;20400;-72
2022/11/04 06:24:51;;;;;;;12.40;3.17;;;11.50;99.90;;;;;;5103624;28;20024;-72
2022/11/04 06:27:17;;;;;;;8.00;3.13;;;11.50;99.90;;;;;;5112624;28;20024;-72
2022/11/04 06:29:43;;;;;;;9.77;3.20;;;11.50;99.90;;;;;;5102826;28;20046;-72
2022/11/04 06:32:11;;;;;;;11.27;3.40;;;11.50;99.90;;;;;;5110005;28;20024;-72
2022/11/04 06:34:37;;;;;;;10.88;3.83;;;11.50;99.90;;;;;;5104520;28;20020;-72
2022/11/04 06:37:03;;;;;;;9.82;3.40;;;11.50;99.90;;;;;;5107241;28;20052;-72
2022/11/04 06:39:29;;;;;;;11.88;3.60;;;11.60;99.90;;;;;;5108833;28;20055;-71
2022/11/04 06:41:55;;;;;;;12.80;3.53;;;11.50;99.90;;;;;;5104644;28;20039;-72
2022/11/04 06:44:21;;;;;;;9.45;4.05;;;11.60;99.90;;;;;;5089608;28;20441;-72
2022/11/04 06:46:46;;;;;;;7.35;4.38;;;11.60;99.90;;;;;;5105054;27;20107;-72
2022/11/04 06:49:18;;;;;;;11.43;3.92;;;11.50;99.90;;;;;;5109259;28;20023;-72
2022/11/04 06:51:45;;;;;;;11.75;4.40;;;11.50;99.90;;;;;;5101410;28;20102;-72
2022/11/04 06:54:11;;;;;;;10.38;4.70;;;11.50;99.90;;;;;;5106534;28;20069;-72
2022/11/04 06:56:38;;;;;;;15.68;5.22;;;11.50;99.90;;;;;;5105440;28;20164;-72
2022/11/04 06:59:04;;;;;;;11.85;4.00;;;11.50;99.90;;;;;;5109051;28;20042;-72
2022/11/04 07:01:33;;;;;;;8.93;2.97;;;11.50;99.90;;;;;;5107840;27;20059;-71
2022/11/04 07:04:00;;;;;;;7.82;3.20;;;11.40;99.90;;;;;;5106941;28;20044;-71
2022/11/04 07:06:28;;;;;;;8.43;3.22;;;11.40;99.90;;;;;;5108060;28;20038;-72
2022/11/04 07:08:57;;;;;;;6.35;2.78;;;11.40;99.90;;;;;;5089842;28;20357;-72
2022/11/04 07:11:24;;;;;;;16.35;4.07;;;11.40;99.90;;;;;;5108641;28;20035;-72
2022/11/04 07:13:49;;;;;;;8.88;3.90;;;11.30;99.90;;;;;;5101818;27;20024;-72
2022/11/04 07:16:16;;;;;;;10.90;4.43;;;11.20;99.90;;;;;;5089158;28;20035;-72
2022/11/04 07:18:41;;;;;;;9.23;3.40;;;11.10;99.90;;;;;;5103006;28;20027;-72
2022/11/04 07:21:08;;;;;;;8.43;3.92;;;11.00;99.90;;;;;;5105513;28;20038;-72
2022/11/04 07:23:34;;;;;;;11.43;3.80;;;11.00;99.90;;;;;;5109368;28;20127;-71
2022/11/04 07:26:00;;;;;;;11.80;3.67;;;11.10;99.90;;;;;;5104367;28;20460;-72
2022/11/04 07:28:27;;;;;;;6.03;3.42;;;11.10;99.90;;;;;;5106975;28;20023;-72
2022/11/04 07:30:55;;;;;;;16.25;4.20;;;11.10;99.90;;;;;;5088263;28;20028;-72
2022/11/04 07:33:21;;;;;;;12.15;4.68;;;11.30;99.90;;;;;;5107511;28;20096;-72
2022/11/04 07:35:46;;;;;;;11.75;4.50;;;11.30;99.90;;;;;;5103512;28;20015;-71
2022/11/04 07:38:12;;;;;;;11.15;3.75;;;11.40;99.90;;;;;;5107167;28;20127;-72
2022/11/04 07:40:38;;;;;;;10.00;4.00;;;11.40;99.90;;;;;;5104614;27;20025;-72
2022/11/04 07:43:03;;;;;;;11.23;4.43;;;11.40;99.90;;;;;;5105417;28;20042;-72
2022/11/04 07:45:29;;;;;;;15.65;3.72;;;11.50;99.90;;;;;;5104964;27;20013;-72
2022/11/04 07:47:56;;;;;;;11.63;4.53;;;11.40;99.90;;;;;;5094779;28;20979;-72
2022/11/04 07:50:22;;;;;;;12.65;4.35;;;11.30;99.90;;;;;;5105842;28;20122;-72
2022/11/04 07:52:49;;;;;;;10.77;3.55;;;11.30;99.90;;;;;;5111006;28;20463;-72
2022/11/04 07:55:17;;;;;;;11.65;4.22;;;11.40;99.90;;;;;;5106419;27;20077;-72
2022/11/04 07:57:44;;;;;;;7.75;3.17;;;11.50;99.90;;;;;;5106050;28;20349;-72
2022/11/04 08:00:10;;;;;;;7.68;2.42;;;11.50;99.90;;;;;;5106357;28;20063;-73
2022/11/04 08:02:36;;;;;;;9.18;2.40;;;11.70;99.90;;;;;;5102410;28;20036;-74
2022/11/04 08:05:02;;;;;;;15.98;2.72;;;11.80;99.90;;;;;;5110371;28;20024;-72
2022/11/04 08:07:28;;;;;;;11.25;3.47;;;11.80;99.90;;;;;;5101240;28;20037;-73
2022/11/04 08:09:53;;;;;;;15.10;3.72;;;11.80;99.90;;;;;;5099770;28;20024;-72
2022/11/04 08:12:20;;;;;;;7.93;3.58;;;11.60;99.90;;;;;;5100662;28;20032;-72
2022/11/04 08:14:46;;;;;;;10.88;3.83;;;11.70;99.90;;;;;;5105382;28;20377;-72
2022/11/04 08:17:12;;;;;;;10.73;3.53;;;11.70;99.90;;;;;;5102158;28;20061;-72
2022/11/04 08:19:38;;;;;;;16.05;4.22;;;11.80;99.90;;;;;;5103024;28;20039;-72
2022/11/04 08:22:04;;;;;;;15.38;4.05;;;11.70;99.90;;;;;;5102713;28;20501;-71
2022/11/04 08:24:30;;;;;;;12.07;3.80;;;11.70;99.90;;;;;;5101616;27;20069;-72
2022/11/04 08:26:56;;;;;;;11.60;3.90;;;11.80;99.90;;;;;;5108318;28;20051;-72
2022/11/04 08:29:22;;;;;;;12.55;4.13;;;11.80;99.90;;;;;;5100004;28;20020;-72
2022/11/04 08:31:48;;;;;;;10.38;4.28;;;11.80;99.90;;;;;;5105880;28;20020;-72
2022/11/04 08:34:16;;;;;;;15.20;4.47;;;11.80;99.90;;;;;;5104490;27;20023;-72
2022/11/04 08:36:41;;;;;;;10.65;3.80;;;11.80;99.90;;;;;;5109088;28;20140;-72
2022/11/04 08:39:08;;;;;;;9.25;4.70;;;11.80;99.90;;;;;;5098666;28;20110;-72
2022/11/04 08:41:36;;;;;;;10.73;4.55;;;11.80;99.90;;;;;;5104493;28;20045;-72
2022/11/04 08:44:03;;;;;;;11.38;5.25;;;11.80;99.90;;;;;;5107669;28;20368;-73
2022/11/04 08:46:32;;;;;;;15.65;4.38;;;11.90;99.90;;;;;;5103994;28;20032;-72
2022/11/04 08:48:58;;;;;;;17.13;5.72;;;12.00;99.90;;;;;;5103074;28;20035;-73
2022/11/04 08:51:25;;;;;;;15.52;6.22;;;12.10;99.90;;;;;;5100186;28;20356;-73
2022/11/04 08:53:51;;;;;;;13.32;5.07;;;12.00;99.90;;;;;;5107530;28;20069;-73
2022/11/04 08:56:22;;;;;;;13.07;4.00;;;12.00;99.90;;;;;;5106372;28;20422;-73
2022/11/04 08:58:49;;;;;;;11.38;4.18;;;11.90;99.90;;;;;;5109186;28;20104;-73
2022/11/04 09:01:15;;;;;;;12.52;4.88;;;12.00;99.90;;;;;;5105996;28;20017;-73
2022/11/04 09:03:42;;;;;;;14.18;5.60;;;11.90;99.90;;;;;;5086581;28;20492;-73
2022/11/04 09:06:14;;;;;;;16.60;6.57;;;12.00;99.90;;;;;;5086150;28;20384;-73
2022/11/04 09:08:42;;;;;;;17.63;4.95;;;11.90;99.90;;;;;;5103986;28;20079;-73
2022/11/04 09:11:10;;;;;;;9.60;4.80;;;11.90;99.90;;;;;;5102404;28;20020;-73
2022/11/04 09:13:37;;;;;;;13.45;4.40;;;12.00;99.90;;;;;;5101676;28;20023;-72
2022/11/04 09:16:03;;;;;;;15.90;5.30;;;12.10;99.90;;;;;;5104790;28;20024;-73
2022/11/04 09:18:30;;;;;;;19.15;6.43;;;12.20;99.90;;;;;;5085776;28;20031;-72
2022/11/04 09:20:59;;;;;;;16.35;5.40;;;12.30;99.90;;;;;;5102678;28;20420;-73
2022/11/04 09:23:25;;;;;;;14.93;5.75;;;12.40;99.90;;;;;;5103779;28;20713;-72
2022/11/04 09:25:51;;;;;;;22.40;6.32;;;12.50;99.90;;;;;;5105041;28;20387;-73
2022/11/04 09:28:16;;;;;;;18.38;5.88;;;12.50;99.90;;;;;;5086525;28;20021;-73
2022/11/04 09:30:42;;;;;;;13.95;5.20;;;12.50;99.90;;;;;;5107847;28;20042;-73
2022/11/04 09:33:08;;;;;;;15.35;5.32;;;12.60;99.90;;;;;;5084238;28;20038;-73
2022/11/04 09:35:33;;;;;;;16.67;4.85;;;12.70;99.90;;;;;;5085727;28;20472;-73
2022/11/04 09:38:00;;;;;;;14.00;5.05;;;12.70;99.90;;;;;;5091335;28;20032;-73
2022/11/04 09:40:27;;;;;;;13.90;4.97;;;12.70;99.90;;;;;;5105170;28;20039;-73
2022/11/04 09:43:24;;;;;;;13.20;4.13;;;12.70;99.90;;;;;;5109742;28;20040;-73
2022/11/04 09:45:51;;;;;;;9.00;3.88;;;12.80;99.90;;;;;;5091272;28;20031;-72
2022/11/04 09:48:46;;;;;;;12.85;3.70;;;12.80;99.90;;;;;;5111621;28;20022;-73
2022/11/04 09:51:13;;;;;;;13.85;4.43;;;12.90;99.90;;;;;;5107345;28;20081;-73
2022/11/04 09:54:01;;;;;;;14.05;4.82;;;12.90;99.90;;;;;;5111995;28;20050;-73
2022/11/04 09:56:41;;;;;;;13.32;4.03;;;13.00;99.90;;;;;;5105813;28;20016;-70
2022/11/04 09:59:10;;;;;;;10.57;4.28;;;13.00;99.90;;;;;;5103596;28;20031;-73
2022/11/04 10:01:39;;;;;;;12.98;3.67;;;13.00;99.90;;;;;;5109605;28;20030;-72
2022/11/04 10:04:25;;;;;;;12.30;3.97;;;13.10;99.90;;;;;;5112408;28;20031;-72
2022/11/04 10:07:06;;;;;;;11.18;3.75;;;13.10;99.90;;;;;;5106787;28;20042;-73
2022/11/04 10:09:43;;;;;;;10.07;3.53;;;13.10;99.90;;;;;;5109439;28;20060;-74
2022/11/04 10:12:32;;;;;;;12.40;4.05;;;13.10;99.90;;;;;;5112341;28;20015;-73
2022/11/04 10:15:17;;;;;;;10.93;4.00;;;13.10;99.90;;;;;;5039928;28;20047;-72
2022/11/04 10:17:59;;;;;;;8.85;3.90;;;13.20;99.90;;;;;;5107542;28;20020;-72
2022/11/04 10:20:49;;;;;;;14.73;4.40;;;13.20;99.90;;;;;;5109920;28;20028;-72
2022/11/04 10:23:38;;;;;;;9.65;4.57;;;13.30;99.90;;;;;;5105830;27;20397;-72
2022/11/04 10:26:40;;;;;;;11.25;4.25;;;13.30;99.90;;;;;;5105945;28;20032;-72
2022/11/04 10:29:29;;;;;;;10.77;4.40;;;13.30;99.90;;;;;;5110205;28;20051;-72
2022/11/04 10:31:58;;;;;;;10.27;4.63;;;13.40;99.90;;;;;;5107508;28;20059;-72
2022/11/04 10:34:45;;;;;;;11.38;4.60;;;13.40;99.90;;;;;;5110004;28;20475;-72
2022/11/04 10:37:12;;;;;;;11.45;4.55;;;13.40;99.90;;;;;;5104588;28;20031;-72
2022/11/04 10:39:45;;;;;;;8.00;4.47;;;13.50;99.90;;;;;;5106125;28;20715;-74
2022/11/04 10:42:18;;;;;;;16.27;4.80;;;13.50;99.90;;;;;;5105020;28;20024;-74
2022/11/04 10:44:44;;;;;;;12.85;4.95;;;13.60;99.90;;;;;;5103629;28;20035;-75
2022/11/04 10:47:30;;;;;;;9.70;5.30;;;13.50;99.90;;;;;;5112739;28;20036;-74
2022/11/04 10:49:55;;;;;;;16.63;4.93;;;13.60;99.90;;;;;;5106777;28;20024;-74
2022/11/04 10:52:22;;;;;;;11.20;5.68;;;13.60;99.90;;;;;;5104925;28;20024;-74
2022/11/04 10:54:49;;;;;;;10.55;6.53;;;13.70;99.90;;;;;;5096364;28;20991;-74
2022/11/04 10:57:24;;;;;;;11.52;6.28;;;13.80;99.90;;;;;;5106526;28;20456;-74
2022/11/04 10:59:57;;;;;;;12.43;7.03;;;13.90;99.90;;;;;;5108973;28;20027;-75
2022/11/04 11:02:43;;;;;;;15.20;7.93;;;13.90;99.90;;;;;;5092109;28;20535;-74
2022/11/04 11:05:12;;;;;;;15.15;7.68;;;14.00;99.90;;;;;;5082881;27;20491;-74
2022/11/04 11:07:38;;;;;;;14.82;8.05;;;14.10;99.90;;;;;;5091099;28;20032;-75
2022/11/04 11:10:04;;;;;;;21.23;11.38;;;14.10;99.90;;;;;;5079443;28;20349;-74
2022/11/04 11:12:35;;;;;;;20.75;12.43;;;14.00;99.90;;;;;;5081501;28;20028;-75
2022/11/04 11:15:25;;;;;;;17.27;11.52;;;14.00;99.90;;;;;;5095424;28;20066;-75
2022/11/04 11:18:05;;;;;;;19.63;12.27;;;13.90;99.90;;;;;;5096722;28;20063;-74
2022/11/04 11:20:32;;;;;;;31.02;12.40;;;14.00;99.90;;;;;;5098144;28;20436;-74
2022/11/04 11:23:00;;;;;;;17.35;12.23;;;14.10;99.90;;;;;;5098595;28;20027;-75
2022/11/04 11:25:33;;;;;;;21.63;10.90;;;14.20;99.90;;;;;;5095385;28;20062;-74
2022/11/04 11:28:05;;;;;;;18.15;11.82;;;14.30;99.90;;;;;;5095380;28;20015;-74
2022/11/04 11:30:40;;;;;;;16.27;9.23;;;14.30;99.90;;;;;;5094679;28;20020;-78
2022/11/04 11:33:17;;;;;;;13.50;8.15;;;14.40;99.90;;;;;;5096537;28;20046;-74
2022/11/04 11:36:11;;;;;;;15.98;8.77;;;14.40;99.90;;;;;;5092386;28;20016;-74
2022/11/04 11:38:38;;;;;;;13.57;8.00;;;14.30;99.90;;;;;;5092377;28;20127;-74
2022/11/04 11:41:07;;;;;;;11.18;8.23;;;14.20;99.90;;;;;;5096445;28;20069;-74
2022/11/04 11:43:35;;;;;;;14.63;9.05;;;14.30;99.90;;;;;;5079800;28;20396;-74
2022/11/04 11:46:02;;;;;;;16.63;9.20;;;14.20;99.90;;;;;;5095458;28;20036;-74
2022/11/04 11:48:38;;;;;;;15.80;7.63;;;14.30;99.90;;;;;;5097953;28;20449;-74
2022/11/04 11:51:05;;;;;;;14.18;6.93;;;14.40;99.90;;;;;;5095567;28;20120;-74
2022/11/04 11:53:37;;;;;;;14.60;6.13;;;14.50;99.90;;;;;;5095508;28;20020;-74
2022/11/04 11:56:17;;;;;;;8.95;5.85;;;14.40;99.90;;;;;;5100667;28;20028;-74
2022/11/04 11:58:54;;;;;;;14.52;6.68;;;14.50;99.90;;;;;;5098082;27;20051;-74
2022/11/04 12:01:33;;;;;;;14.25;6.38;;;14.50;99.90;;;;;;5080710;28;20111;-74
2022/11/04 12:03:59;;;;;;;18.40;7.45;;;14.30;99.90;;;;;;5079587;28;20499;-74
2022/11/04 12:06:43;;;;;;;15.35;7.32;;;14.30;99.90;;;;;;5096519;28;20035;-74
2022/11/04 12:09:15;;;;;;;16.58;7.60;;;14.20;99.90;;;;;;5098033;28;20027;-74
2022/11/04 12:12:05;;;;;;;16.30;7.87;;;14.20;99.90;;;;;;5096686;28;20043;-74
2022/11/04 12:14:51;;;;;;;16.67;8.32;;;14.10;99.90;;;;;;5097870;28;20295;-75
2022/11/04 12:17:48;;;;;;;13.18;8.13;;;14.00;99.90;;;;;;5080368;28;20032;-74
2022/11/04 12:20:52;;;;;;;20.77;9.02;;;14.00;99.90;;;;;;5096776;28;20061;-75
2022/11/04 12:23:33;;;;;;;19.58;9.23;;;13.90;99.90;;;;;;5030522;28;20148;-74
2022/11/04 12:26:12;;;;;;;22.95;10.07;;;13.90;99.90;;;;;;5010071;28;20020;-74
2022/11/04 12:28:37;;;;;;;19.70;11.07;;;13.90;99.90;;;;;;5055166;28;20040;-74
2022/11/04 12:31:21;;;;;;;20.50;10.45;;;13.90;99.90;;;;;;5096702;28;20042;-74
2022/11/04 12:33:52;;;;;;;16.98;10.43;;;14.00;99.90;;;;;;5099570;28;20024;-74
2022/11/04 12:36:39;;;;;;;18.48;10.45;;;14.00;99.90;;;;;;5095237;28;22471;-74
2022/11/04 12:39:10;;;;;;;20.33;10.00;;;13.90;99.90;;;;;;5095227;28;20024;-74
2022/11/04 12:42:03;;;;;;;17.45;10.10;;;13.90;99.90;;;;;;5082942;28;20480;-74
2022/11/04 12:45:11;;;;;;;20.10;9.48;;;13.90;99.90;;;;;;5077916;28;20431;-74
2022/11/04 12:47:41;;;;;;;18.85;10.35;;;13.80;99.90;;;;;;5095497;28;20052;-74
2022/11/04 12:50:56;;;;;;;19.17;9.25;;;13.80;99.90;;;;;;5095528;28;20035;-74
2022/11/04 12:53:46;;;;;;;20.08;8.98;;;13.80;99.90;;;;;;5078568;28;20035;-74
2022/11/04 12:56:16;;;;;;;18.83;9.80;;;13.90;99.90;;;;;;5095642;28;20016;-74
2022/11/04 12:58:44;;;;;;;20.25;10.10;;;14.00;99.90;;;;;;5094632;28;20103;-73
2022/11/04 13:01:18;;;;;;;22.15;10.38;;;14.00;99.90;;;;;;5097536;28;20034;-74
2022/11/04 13:03:47;;;;;;;17.13;9.63;;;14.00;99.90;;;;;;5092504;28;20035;-74
2022/11/04 13:06:22;;;;;;;16.52;9.27;;;14.00;99.90;;;;;;5097575;28;20024;-74
2022/11/04 13:08:54;;;;;;;18.65;9.68;;;14.10;99.90;;;;;;5097310;28;20392;-74
2022/11/04 13:11:41;;;;;;;23.60;11.35;;;14.20;99.90;;;;;;5094821;28;20032;-73
2022/11/04 13:14:31;;;;;;;21.52;10.57;;;14.20;99.90;;;;;;5095481;28;20024;-73
2022/11/04 13:17:05;;;;;;;17.95;10.70;;;14.20;99.90;;;;;;5074083;28;20028;-72
2022/11/04 13:19:49;;;;;;;19.08;8.70;;;14.30;99.90;;;;;;5078496;28;20063;-72
2022/11/04 13:22:35;;;;;;;20.00;9.43;;;14.30;99.90;;;;;;5097077;28;20016;-72
2022/11/04 13:25:05;;;;;;;18.52;9.13;;;14.40;99.90;;;;;;5094299;28;20035;-72
2022/11/04 13:27:35;;;;;;;17.50;8.85;;;14.40;99.90;;;;;;5095135;28;20024;-72
2022/11/04 13:30:26;;;;;;;20.02;9.70;;;14.50;99.90;;;;;;5094772;28;20396;-72
2022/11/04 13:32:55;;;;;;;25.23;10.43;;;14.50;99.90;;;;;;5097747;28;20020;-72
2022/11/04 13:35:32;;;;;;;23.05;10.70;;;14.60;99.90;;;;;;5096073;28;20039;-73
2022/11/04 13:38:11;;;;;;;14.20;9.38;;;14.60;99.90;;;;;;5096219;28;20465;-72